createdAt,value
2022-10-18T00:02:22.310Z,8.68
2022-10-18T00:04:50.982Z,8.77
2022-10-18T00:07:19.797Z,9.52
2022-10-18T00:09:49.924Z,5.93
2022-10-18T00:12:18.299Z,13.02
2022-10-18T00:14:50.053Z,7.28
2022-10-18T00:17:18.869Z,7.38
2022-10-18T00:19:48.205Z,11.93
2022-10-18T00:22:17.586Z,6.07
2022-10-18T00:24:46.663Z,8.77
2022-10-18T00:27:17.189Z,7.18
2022-10-18T00:29:46.335Z,9.32
2022-10-18T00:32:15.219Z,8.68
2022-10-18T00:34:43.545Z,6.90
2022-10-18T00:37:12.719Z,5.72
2022-10-18T00:39:41.348Z,4.72
2022-10-18T00:42:13.221Z,5.03
2022-10-18T00:45:20.866Z,5.93
2022-10-18T00:47:53.778Z,5.82
2022-10-18T00:50:24.438Z,6.55
2022-10-18T00:52:58.285Z,4.38
2022-10-18T00:55:28.219Z,7.43
2022-10-18T00:57:57.465Z,7.88
2022-10-18T01:00:28.193Z,5.65
2022-10-18T01:02:57.175Z,8.05
2022-10-18T01:05:27.759Z,6.68
2022-10-18T01:08:32.913Z,6.70
2022-10-18T01:11:27.463Z,6.47
2022-10-18T01:14:07.324Z,6.50
2022-10-18T01:16:46.921Z,7.00
2022-10-18T01:19:45.010Z,10.68
2022-10-18T01:22:22.978Z,9.57
2022-10-18T01:27:46.064Z,11.68
2022-10-18T01:30:44.536Z,8.68
2022-10-18T01:33:30.225Z,7.68
2022-10-18T01:36:05.552Z,9.73
2022-10-18T01:38:35.896Z,11.57
2022-10-18T01:41:06.241Z,7.47
2022-10-18T01:43:36.250Z,9.15
2022-10-18T01:46:08.155Z,7.32
2022-10-18T01:48:38.851Z,11.88
2022-10-18T01:51:07.922Z,8.50
2022-10-18T01:53:36.625Z,7.82
2022-10-18T01:56:30.615Z,8.82
2022-10-18T01:59:22.263Z,9.05
2022-10-18T02:01:59.221Z,12.20
2022-10-18T02:04:35.019Z,10.77
2022-10-18T02:07:10.691Z,15.90
2022-10-18T02:09:46.586Z,7.70
2022-10-18T02:12:17.420Z,7.22
2022-10-18T02:14:47.493Z,6.57
2022-10-18T02:17:19.378Z,10.23
2022-10-18T02:19:53.056Z,8.85
2022-10-18T02:22:23.295Z,11.38
2022-10-18T02:24:54.878Z,9.07
2022-10-18T02:27:24.173Z,9.45
2022-10-18T02:29:53.149Z,11.40
2022-10-18T02:32:32.935Z,7.55
2022-10-18T02:35:07.078Z,9.93
2022-10-18T02:37:39.339Z,10.95
2022-10-18T02:40:10.117Z,10.70
2022-10-18T02:42:41.374Z,29.58
2022-10-18T02:45:10.611Z,12.55
2022-10-18T02:47:40.518Z,9.63
2022-10-18T02:50:10.514Z,16.77
2022-10-18T02:52:39.184Z,58.35
2022-10-18T02:55:10.050Z,37.35
2022-10-18T02:57:38.612Z,32.00
2022-10-18T03:00:09.092Z,47.42
2022-10-18T03:02:37.542Z,49.55
2022-10-18T03:05:08.586Z,56.58
2022-10-18T03:07:37.272Z,22.13
2022-10-18T03:10:06.332Z,48.67
2022-10-18T03:12:35.103Z,14.00
2022-10-18T03:15:03.707Z,10.23
2022-10-18T03:17:32.452Z,8.20
2022-10-18T03:20:01.076Z,18.58
2022-10-18T03:22:31.292Z,15.73
2022-10-18T03:24:59.691Z,12.32
2022-10-18T03:27:28.530Z,11.48
2022-10-18T03:29:57.050Z,10.27
2022-10-18T03:32:25.441Z,11.48
2022-10-18T03:34:54.576Z,10.20
2022-10-18T03:37:23.082Z,8.65
2022-10-18T03:39:53.611Z,6.47
2022-10-18T03:42:22.047Z,10.43
2022-10-18T03:44:50.497Z,10.80
2022-10-18T03:47:19.283Z,11.50
2022-10-18T03:49:48.591Z,9.95
2022-10-18T03:52:19.119Z,11.88
2022-10-18T03:54:47.872Z,9.77
2022-10-18T03:57:17.820Z,6.00
2022-10-18T03:59:49.145Z,6.57
2022-10-18T04:02:17.538Z,9.27
2022-10-18T04:04:46.946Z,5.95
2022-10-18T04:07:15.545Z,5.10
2022-10-18T04:09:43.917Z,5.60
2022-10-18T04:12:13.040Z,4.93
2022-10-18T04:14:42.736Z,7.28
2022-10-18T04:17:11.853Z,6.50
2022-10-18T04:19:40.995Z,6.18
2022-10-18T04:22:10.461Z,5.93
2022-10-18T04:24:39.388Z,6.00
2022-10-18T04:27:08.730Z,4.75
2022-10-18T04:29:37.436Z,6.82
2022-10-18T04:32:07.559Z,7.45
2022-10-18T04:34:37.057Z,11.88
2022-10-18T04:37:05.545Z,7.20
2022-10-18T04:39:34.282Z,7.20
2022-10-18T04:42:03.223Z,7.53
2022-10-18T04:44:32.370Z,8.70
2022-10-18T04:47:00.740Z,6.57
2022-10-18T04:49:30.827Z,7.50
2022-10-18T04:51:59.591Z,5.55
2022-10-18T04:54:28.713Z,5.15
2022-10-18T04:56:57.645Z,8.68
2022-10-18T04:59:26.050Z,4.90
2022-10-18T05:01:55.314Z,7.70
2022-10-18T05:04:23.819Z,8.30
2022-10-18T05:06:54.099Z,11.77
2022-10-18T05:09:24.677Z,9.80
2022-10-18T05:11:53.117Z,7.10
2022-10-18T05:14:22.289Z,4.47
2022-10-18T05:16:50.744Z,6.70
2022-10-18T05:19:19.970Z,4.90
2022-10-18T05:21:48.769Z,12.52
2022-10-18T05:24:18.612Z,9.50
2022-10-18T05:26:47.702Z,6.47
2022-10-18T05:29:16.196Z,6.50
2022-10-18T05:31:44.856Z,7.85
2022-10-18T05:34:13.771Z,13.70
2022-10-18T05:36:42.148Z,9.50
2022-10-18T05:39:11.160Z,9.65
2022-10-18T05:41:41.007Z,12.40
2022-10-18T05:44:10.939Z,21.05
2022-10-18T05:46:39.464Z,33.80
2022-10-18T05:49:07.959Z,18.02
2022-10-18T05:51:36.588Z,12.32
2022-10-18T05:54:05.651Z,10.00
2022-10-18T05:56:34.274Z,12.98
2022-10-18T05:59:05.141Z,12.48
2022-10-18T06:01:34.088Z,16.17
2022-10-18T06:04:03.135Z,9.52
2022-10-18T06:06:32.183Z,15.52
2022-10-18T06:09:03.728Z,9.25
2022-10-18T06:11:32.669Z,10.15
2022-10-18T06:14:02.034Z,17.30
2022-10-18T06:16:32.738Z,11.43
2022-10-18T06:19:01.731Z,12.20
2022-10-18T06:21:30.639Z,9.38
2022-10-18T06:24:00.051Z,11.75
2022-10-18T06:26:29.924Z,11.57
2022-10-18T06:28:58.309Z,7.05
2022-10-18T06:31:27.107Z,7.93
2022-10-18T06:33:58.798Z,9.68
2022-10-18T06:36:27.156Z,10.07
2022-10-18T06:38:57.171Z,7.78
2022-10-18T06:41:25.537Z,6.72
2022-10-18T06:43:57.658Z,9.15
2022-10-18T06:46:27.432Z,7.95
2022-10-18T06:48:56.322Z,8.77
2022-10-18T06:51:26.410Z,7.85
2022-10-18T06:54:06.212Z,9.55
2022-10-18T06:56:43.514Z,7.82
2022-10-18T06:59:12.281Z,9.10
2022-10-18T07:01:40.759Z,8.25
2022-10-18T07:04:09.220Z,7.80
2022-10-18T07:06:38.938Z,7.38
2022-10-18T07:09:07.307Z,6.35
2022-10-18T07:11:35.835Z,11.63
2022-10-18T07:14:05.914Z,12.35
2022-10-18T07:16:34.904Z,5.90
2022-10-18T07:19:03.296Z,6.90
2022-10-18T07:21:32.760Z,6.38
2022-10-18T07:24:02.476Z,8.57
2022-10-18T07:26:33.564Z,11.82
2022-10-18T07:29:05.570Z,13.93
2022-10-18T07:31:34.965Z,8.27
2022-10-18T07:34:05.141Z,9.73
2022-10-18T07:36:33.988Z,10.90
2022-10-18T07:39:05.383Z,10.18
2022-10-18T07:41:34.419Z,10.20
2022-10-18T07:44:03.348Z,7.88
2022-10-18T07:46:32.228Z,12.35
2022-10-18T07:49:01.299Z,12.43
2022-10-18T07:51:32.591Z,9.82
2022-10-18T07:54:01.235Z,11.05
2022-10-18T07:56:30.978Z,8.50
2022-10-18T07:59:00.187Z,9.32
2022-10-18T08:01:29.004Z,12.77
2022-10-18T08:03:57.379Z,8.52
2022-10-18T08:06:25.787Z,10.27
2022-10-18T08:08:54.541Z,7.50
2022-10-18T08:11:24.435Z,10.27
2022-10-18T08:13:55.746Z,11.20
2022-10-18T08:16:26.182Z,7.55
2022-10-18T08:18:54.958Z,9.52
2022-10-18T08:21:23.605Z,10.60
2022-10-18T08:23:53.733Z,10.50
2022-10-18T08:26:24.331Z,9.85
2022-10-18T08:29:09.950Z,13.43
2022-10-18T08:31:43.591Z,10.50
2022-10-18T08:34:14.851Z,9.85
2022-10-18T08:36:47.042Z,6.55
2022-10-18T08:39:15.395Z,7.97
2022-10-18T08:42:19.259Z,12.80
2022-10-18T08:44:51.426Z,11.20
2022-10-18T08:47:22.903Z,10.48
2022-10-18T08:49:55.566Z,9.40
2022-10-18T08:52:33.522Z,10.07
2022-10-18T08:55:10.330Z,7.30
2022-10-18T08:57:38.990Z,8.13
2022-10-18T09:00:16.752Z,8.63
2022-10-18T09:03:01.316Z,7.47
2022-10-18T09:05:37.942Z,8.93
2022-10-18T09:08:34.687Z,6.80
2022-10-18T09:11:16.127Z,5.30
2022-10-18T09:14:04.522Z,7.07
2022-10-18T09:16:43.725Z,7.30
2022-10-18T09:19:23.180Z,8.75
2022-10-18T09:21:53.822Z,8.35
2022-10-18T09:24:29.381Z,8.20
2022-10-18T09:27:05.018Z,9.98
2022-10-18T09:29:47.387Z,6.90
2022-10-18T09:32:29.850Z,10.63
2022-10-18T09:35:02.356Z,8.93
2022-10-18T09:37:34.049Z,8.30
2022-10-18T09:40:18.045Z,9.48
2022-10-18T09:42:56.831Z,8.45
2022-10-18T09:45:29.973Z,7.63
2022-10-18T09:48:07.236Z,5.78
2022-10-18T09:50:39.385Z,8.13
2022-10-18T09:53:18.692Z,8.02
2022-10-18T09:56:00.540Z,6.28
2022-10-18T09:58:39.479Z,7.38
2022-10-18T10:01:09.842Z,6.72
2022-10-18T10:03:40.315Z,10.15
2022-10-18T10:06:25.134Z,8.32
2022-10-18T10:09:01.938Z,8.82
2022-10-18T10:11:35.955Z,8.63
2022-10-18T10:16:52.468Z,9.32
2022-10-18T10:19:27.659Z,6.85
2022-10-18T10:22:00.085Z,8.05
2022-10-18T10:24:44.687Z,8.73
2022-10-18T10:27:20.051Z,8.00
2022-10-18T10:30:04.195Z,7.50
2022-10-18T10:32:47.247Z,13.02
2022-10-18T10:38:26.180Z,9.45
2022-10-18T10:40:55.976Z,9.18
2022-10-18T10:43:43.040Z,7.93
2022-10-18T10:46:14.479Z,6.13
2022-10-18T10:48:49.557Z,10.73
2022-10-18T10:51:31.669Z,6.75
2022-10-18T10:56:59.521Z,8.43
2022-10-18T10:59:31.974Z,7.07
2022-10-18T11:02:20.733Z,8.02
2022-10-18T11:04:51.274Z,8.25
2022-10-18T11:07:27.106Z,12.98
2022-10-18T11:10:01.355Z,6.45
2022-10-18T11:12:35.756Z,4.82
2022-10-18T11:15:17.992Z,7.75
2022-10-18T11:20:33.796Z,7.15
2022-10-18T11:23:08.180Z,7.80
2022-10-18T11:26:01.101Z,6.43
2022-10-18T11:28:43.503Z,6.80
2022-10-18T11:31:19.559Z,7.40
2022-10-18T11:34:09.120Z,8.35
2022-10-18T11:36:56.271Z,7.00
2022-10-18T11:39:44.494Z,11.43
2022-10-18T11:42:22.895Z,8.32
2022-10-18T11:45:02.645Z,6.47
2022-10-18T11:47:42.314Z,11.00
2022-10-18T11:50:26.114Z,9.40
2022-10-18T11:53:05.439Z,6.88
2022-10-18T11:55:45.927Z,6.82
2022-10-18T11:58:33.153Z,5.68
2022-10-18T12:01:09.335Z,6.15
2022-10-18T12:03:54.930Z,7.85
2022-10-18T12:06:26.427Z,6.25
2022-10-18T12:08:59.540Z,5.97
2022-10-18T12:11:34.260Z,7.10
2022-10-18T12:14:05.664Z,6.13
2022-10-18T12:17:07.609Z,4.68
2022-10-18T12:19:29.415Z,6.28
2022-10-18T12:22:04.254Z,5.65
2022-10-18T12:24:33.735Z,5.30
2022-10-18T12:27:04.973Z,6.97
2022-10-18T12:29:42.085Z,3.38
2022-10-18T12:32:14.818Z,8.77
2022-10-18T12:34:47.048Z,3.83
2022-10-18T12:37:35.783Z,6.03
2022-10-18T12:40:11.444Z,6.57
2022-10-18T12:42:45.192Z,5.28
2022-10-18T12:45:25.308Z,7.30
2022-10-18T12:47:54.695Z,8.13
2022-10-18T12:50:31.673Z,5.22
2022-10-18T12:53:17.402Z,5.07
2022-10-18T12:55:47.679Z,6.45
2022-10-18T12:58:32.757Z,6.50
2022-10-18T13:01:03.839Z,4.53
2022-10-18T13:03:55.240Z,4.40
2022-10-18T13:06:25.491Z,4.90
2022-10-18T13:09:20.315Z,5.90
2022-10-18T13:11:49.679Z,7.55
2022-10-18T13:14:59.356Z,5.70
2022-10-18T13:17:45.674Z,8.88
2022-10-18T13:20:26.464Z,4.75
2022-10-18T13:25:55.264Z,6.60
2022-10-18T13:28:30.519Z,9.52
2022-10-18T13:31:11.203Z,5.32
2022-10-18T13:33:42.058Z,3.88
2022-10-18T13:36:23.667Z,4.03
2022-10-18T13:39:03.788Z,7.18
2022-10-18T13:41:35.490Z,6.75
2022-10-18T13:44:28.756Z,7.07
2022-10-18T13:47:38.896Z,8.90
2022-10-18T13:50:42.253Z,7.20
2022-10-18T13:53:35.847Z,5.63
2022-10-18T13:56:24.301Z,9.07
2022-10-18T13:59:14.294Z,5.97
2022-10-18T14:01:57.939Z,6.68
2022-10-18T14:04:48.282Z,9.55
2022-10-18T14:07:19.435Z,7.95
2022-10-18T14:09:55.498Z,5.13
2022-10-18T14:12:32.063Z,7.07
2022-10-18T14:15:06.883Z,4.00
2022-10-18T14:17:41.005Z,4.65
2022-10-18T14:20:29.536Z,6.03
2022-10-18T14:23:03.916Z,7.95
2022-10-18T14:25:35.992Z,8.00
2022-10-18T14:28:12.233Z,7.40
2022-10-18T14:30:59.808Z,4.88
2022-10-18T14:33:31.427Z,8.77
2022-10-18T14:36:08.163Z,8.63
2022-10-18T14:38:47.837Z,8.77
2022-10-18T14:41:21.591Z,8.73
2022-10-18T14:43:50.551Z,8.18
2022-10-18T14:46:24.327Z,12.88
2022-10-18T14:48:54.731Z,8.05
2022-10-18T14:51:25.468Z,12.30
2022-10-18T14:53:54.683Z,4.18
2022-10-18T14:56:28.092Z,7.32
2022-10-18T14:58:58.155Z,5.57
2022-10-18T15:01:30.947Z,7.10
2022-10-18T15:04:01.218Z,7.57
2022-10-18T15:06:33.720Z,6.65
2022-10-18T15:09:04.731Z,6.57
2022-10-18T15:11:34.269Z,5.85
2022-10-18T15:14:06.742Z,6.85
2022-10-18T15:16:38.765Z,7.97
2022-10-18T15:19:09.343Z,7.45
2022-10-18T15:21:39.825Z,7.50
2022-10-18T15:24:30.781Z,6.82
2022-10-18T15:27:04.248Z,8.15
2022-10-18T15:29:36.150Z,10.00
2022-10-18T15:32:14.853Z,7.25
2022-10-18T15:34:43.457Z,8.32
2022-10-18T15:37:33.345Z,5.65
2022-10-18T15:40:31.749Z,6.43
2022-10-18T15:43:02.482Z,8.10
2022-10-18T15:45:34.069Z,8.80
2022-10-18T15:48:18.583Z,8.88
2022-10-18T15:50:48.834Z,6.07
2022-10-18T15:53:33.793Z,7.40
2022-10-18T15:56:05.943Z,8.20
2022-10-18T15:58:44.306Z,7.68
2022-10-18T16:01:18.113Z,6.72
2022-10-18T16:03:48.481Z,6.30
2022-10-18T16:06:18.499Z,8.38
2022-10-18T16:08:51.974Z,8.25
2022-10-18T16:11:22.062Z,6.72
2022-10-18T16:13:54.022Z,7.15
2022-10-18T16:16:27.019Z,8.95
2022-10-18T16:18:56.937Z,7.10
2022-10-18T16:21:27.396Z,9.13
2022-10-18T16:23:57.921Z,10.82
2022-10-18T16:26:27.055Z,5.90
2022-10-18T16:28:57.178Z,7.57
2022-10-18T16:31:28.301Z,6.32
2022-10-18T16:33:58.592Z,7.10
2022-10-18T16:36:29.990Z,7.07
2022-10-18T16:39:03.845Z,7.53
2022-10-18T16:41:32.618Z,6.38
2022-10-18T16:44:01.000Z,6.40
2022-10-18T16:46:33.927Z,7.13
2022-10-18T16:49:03.247Z,9.88
2022-10-18T16:51:32.139Z,9.02
2022-10-18T16:54:01.977Z,8.65
2022-10-18T16:56:33.087Z,9.52
2022-10-18T16:59:01.774Z,6.78
2022-10-18T17:01:30.813Z,7.20
2022-10-18T17:03:59.392Z,11.80
2022-10-18T17:06:30.535Z,8.63
2022-10-18T17:08:59.676Z,7.40
2022-10-18T17:11:30.274Z,8.30
2022-10-18T17:13:58.634Z,9.02
2022-10-18T17:16:30.147Z,7.07
2022-10-18T17:19:01.365Z,10.95
2022-10-18T17:21:33.742Z,11.13
2022-10-18T17:24:03.205Z,8.88
2022-10-18T17:26:33.650Z,7.80
2022-10-18T17:29:04.965Z,6.22
2022-10-18T17:31:35.901Z,9.63
2022-10-18T17:34:04.784Z,10.60
2022-10-18T17:36:34.372Z,8.75
2022-10-18T17:39:03.128Z,6.15
2022-10-18T17:41:33.498Z,10.18
2022-10-18T17:44:03.459Z,6.85
2022-10-18T17:46:32.917Z,9.30
2022-10-18T17:49:01.330Z,9.60
2022-10-18T17:51:30.201Z,11.98
2022-10-18T17:53:58.607Z,9.43
2022-10-18T17:56:31.416Z,12.80
2022-10-18T17:59:01.200Z,9.45
2022-10-18T18:01:30.284Z,11.07
2022-10-18T18:03:59.746Z,8.65
2022-10-18T18:06:31.935Z,9.18
2022-10-18T18:09:02.295Z,11.10
2022-10-18T18:11:31.969Z,7.97
2022-10-18T18:14:01.796Z,9.32
2022-10-18T18:16:31.638Z,6.63
2022-10-18T18:19:00.093Z,7.63
2022-10-18T18:21:29.303Z,9.00
2022-10-18T18:23:57.820Z,10.80
2022-10-18T18:26:26.432Z,6.20
2022-10-18T18:28:55.430Z,6.93
2022-10-18T18:31:29.441Z,13.18
2022-10-18T18:34:01.557Z,10.15
2022-10-18T18:36:30.058Z,11.32
2022-10-18T18:38:59.211Z,7.40
2022-10-18T18:41:28.721Z,5.93
2022-10-18T18:43:59.214Z,8.00
2022-10-18T18:46:32.931Z,10.75
2022-10-18T18:49:02.447Z,9.27
2022-10-18T18:51:32.095Z,12.13
2022-10-18T18:54:01.695Z,9.05
2022-10-18T18:56:30.057Z,11.30
2022-10-18T18:59:00.593Z,9.60
2022-10-18T19:01:32.388Z,7.70
2022-10-18T19:04:01.683Z,9.48
2022-10-18T19:06:31.804Z,8.13
2022-10-18T19:09:04.038Z,10.90
2022-10-18T19:11:34.485Z,8.77
2022-10-18T19:14:04.835Z,9.55
2022-10-18T19:16:35.766Z,9.23
2022-10-18T19:19:07.133Z,8.93
2022-10-18T19:21:37.265Z,5.93
2022-10-18T19:24:07.811Z,5.35
2022-10-18T19:26:37.914Z,12.05
2022-10-18T19:29:09.927Z,10.07
2022-10-18T19:31:39.818Z,7.40
2022-10-18T19:34:10.711Z,6.43
2022-10-18T19:36:40.730Z,6.70
2022-10-18T19:39:13.107Z,5.63
2022-10-18T19:41:41.438Z,5.85
2022-10-18T19:44:09.988Z,7.22
2022-10-18T19:46:40.023Z,5.75
2022-10-18T19:49:08.942Z,9.95
2022-10-18T19:51:37.681Z,9.93
2022-10-18T19:54:06.903Z,8.80
2022-10-18T19:56:35.259Z,9.38
2022-10-18T19:59:03.800Z,9.73
2022-10-18T20:01:32.382Z,9.13
2022-10-18T20:04:03.730Z,11.07
2022-10-18T20:06:33.460Z,8.52
2022-10-18T20:09:01.979Z,8.07
2022-10-18T20:11:31.187Z,9.23
2022-10-18T20:14:00.874Z,7.95
2022-10-18T20:16:31.067Z,9.48
2022-10-18T20:19:02.861Z,8.48
2022-10-18T20:21:35.388Z,9.32
2022-10-18T20:24:05.251Z,8.90
2022-10-18T20:26:35.737Z,6.45
2022-10-18T20:29:05.337Z,6.85
2022-10-18T20:31:38.653Z,8.48
2022-10-18T20:34:12.099Z,7.13
2022-10-18T20:36:40.900Z,7.68
2022-10-18T20:39:10.075Z,8.23
2022-10-18T20:41:41.422Z,7.50
2022-10-18T20:44:13.988Z,7.45
2022-10-18T20:46:44.394Z,9.55
2022-10-18T20:49:16.807Z,11.52
2022-10-18T20:51:46.221Z,8.48
2022-10-18T20:54:14.613Z,7.05
2022-10-18T20:56:43.864Z,8.85
2022-10-18T20:59:12.236Z,6.90
2022-10-18T21:01:41.203Z,9.57
2022-10-18T21:04:11.247Z,8.73
2022-10-18T21:06:43.126Z,9.13
2022-10-18T21:09:13.499Z,10.88
2022-10-18T21:11:45.308Z,11.50
2022-10-18T21:14:16.029Z,7.72
2022-10-18T21:16:45.796Z,10.45
2022-10-18T21:19:16.142Z,9.95
2022-10-18T21:21:49.921Z,9.48
2022-10-18T21:24:19.398Z,8.02
2022-10-18T21:26:48.920Z,8.05
2022-10-18T21:29:21.923Z,10.55
2022-10-18T21:31:53.933Z,7.57
2022-10-18T21:34:22.961Z,7.53
2022-10-18T21:36:53.036Z,9.18
2022-10-18T21:41:57.698Z,8.32
2022-10-18T21:44:26.032Z,6.78
2022-10-18T21:46:55.334Z,9.30
2022-10-18T21:49:25.051Z,10.77
2022-10-18T21:51:55.522Z,12.60
2022-10-18T21:54:23.936Z,8.13
2022-10-18T21:56:52.657Z,14.80
2022-10-18T21:59:21.188Z,9.77
2022-10-18T22:01:50.262Z,9.63
2022-10-18T22:04:20.779Z,13.35
2022-10-18T22:06:50.657Z,9.52
2022-10-18T22:09:22.136Z,11.00
2022-10-18T22:11:53.318Z,8.73
2022-10-18T22:14:21.842Z,10.30
2022-10-18T22:16:51.215Z,7.25
2022-10-18T22:19:19.675Z,10.75
2022-10-18T22:21:48.591Z,11.27
2022-10-18T22:24:16.998Z,7.80
2022-10-18T22:26:48.375Z,8.85
2022-10-18T22:29:18.981Z,8.30
2022-10-18T22:31:50.016Z,8.93
2022-10-18T22:34:20.175Z,8.68
2022-10-18T22:36:49.341Z,7.93
2022-10-18T22:39:18.399Z,8.82
2022-10-18T22:41:52.590Z,6.35
2022-10-18T22:44:21.481Z,10.73
2022-10-18T22:46:49.893Z,9.27
2022-10-18T22:49:19.022Z,7.25
2022-10-18T22:51:47.760Z,9.18
2022-10-18T22:54:16.554Z,8.52
2022-10-18T22:56:45.486Z,11.05
2022-10-18T22:59:15.206Z,13.75
2022-10-18T23:01:44.342Z,10.85
2022-10-18T23:04:13.175Z,7.95
2022-10-18T23:06:41.945Z,9.38
2022-10-18T23:09:12.334Z,8.45
2022-10-18T23:11:41.326Z,6.93
2022-10-18T23:14:09.754Z,7.68
2022-10-18T23:16:40.351Z,7.43
2022-10-18T23:19:08.762Z,8.93
2022-10-18T23:21:37.086Z,7.35
2022-10-18T23:24:05.920Z,6.78
2022-10-18T23:26:34.440Z,8.27
2022-10-18T23:29:03.372Z,8.40
2022-10-18T23:31:34.038Z,8.88
2022-10-18T23:34:06.701Z,10.82
2022-10-18T23:36:35.475Z,9.10
2022-10-18T23:39:06.522Z,10.18
2022-10-18T23:41:35.221Z,10.15
2022-10-18T23:44:04.837Z,9.13
2022-10-18T23:46:33.592Z,8.93
2022-10-18T23:49:01.968Z,9.20
2022-10-18T23:51:32.062Z,8.68
2022-10-18T23:54:00.807Z,8.88
2022-10-18T23:56:29.162Z,8.93
2022-10-18T23:58:58.491Z,10.35
